sensor_id;sensor_type;location;lat;lon;timestamp;P1;durP1;ratioP1;P2;durP2;ratioP2
69325;SDS011;56471;53.508;49.252;2023-06-22T00:00:51;2.05;;;1.10;;
69325;SDS011;56471;53.508;49.252;2023-06-22T00:03:17;2.15;;;1.20;;
69325;SDS011;56471;53.508;49.252;2023-06-22T00:05:44;1.90;;;1.35;;
69325;SDS011;56471;53.508;49.252;2023-06-22T00:08:10;2.25;;;1.30;;
69325;SDS011;56471;53.508;49.252;2023-06-22T00:10:36;2.33;;;1.33;;
69325;SDS011;56471;53.508;49.252;2023-06-22T00:13:02;1.50;;;1.17;;
69325;SDS011;56471;53.508;49.252;2023-06-22T00:15:28;3.03;;;1.35;;
69325;SDS011;56471;53.508;49.252;2023-06-22T00:17:54;3.83;;;1.20;;
69325;SDS011;56471;53.508;49.252;2023-06-22T00:20:19;1.70;;;1.17;;
69325;SDS011;56471;53.508;49.252;2023-06-22T00:22:45;1.73;;;1.15;;
69325;SDS011;56471;53.508;49.252;2023-06-22T00:25:11;2.63;;;1.20;;
69325;SDS011;56471;53.508;49.252;2023-06-22T00:27:36;2.70;;;1.25;;
69325;SDS011;56471;53.508;49.252;2023-06-22T00:30:02;1.50;;;1.30;;
69325;SDS011;56471;53.508;49.252;2023-06-22T00:32:28;1.85;;;1.20;;
69325;SDS011;56471;53.508;49.252;2023-06-22T00:34:54;1.50;;;1.30;;
69325;SDS011;56471;53.508;49.252;2023-06-22T00:37:20;4.03;;;1.35;;
69325;SDS011;56471;53.508;49.252;2023-06-22T00:39:53;2.38;;;1.48;;
69325;SDS011;56471;53.508;49.252;2023-06-22T00:42:20;3.72;;;1.25;;
69325;SDS011;56471;53.508;49.252;2023-06-22T00:44:45;2.13;;;1.20;;
69325;SDS011;56471;53.508;49.252;2023-06-22T00:47:11;2.08;;;1.20;;
69325;SDS011;56471;53.508;49.252;2023-06-22T00:49:39;1.52;;;1.20;;
69325;SDS011;56471;53.508;49.252;2023-06-22T00:52:06;2.17;;;1.13;;
69325;SDS011;56471;53.508;49.252;2023-06-22T00:54:37;1.77;;;1.25;;
69325;SDS011;56471;53.508;49.252;2023-06-22T00:57:03;1.42;;;1.20;;
69325;SDS011;56471;53.508;49.252;2023-06-22T00:59:29;2.10;;;1.20;;
69325;SDS011;56471;53.508;49.252;2023-06-22T01:01:57;1.13;;;1.00;;
69325;SDS011;56471;53.508;49.252;2023-06-22T01:04:24;2.42;;;1.17;;
69325;SDS011;56471;53.508;49.252;2023-06-22T01:07:20;1.80;;;1.10;;
69325;SDS011;56471;53.508;49.252;2023-06-22T01:12:53;2.05;;;1.20;;
69325;SDS011;56471;53.508;49.252;2023-06-22T01:15:28;2.85;;;1.33;;
69325;SDS011;56471;53.508;49.252;2023-06-22T01:18:14;2.30;;;1.27;;
69325;SDS011;56471;53.508;49.252;2023-06-22T01:20:42;1.67;;;1.30;;
69325;SDS011;56471;53.508;49.252;2023-06-22T01:26:02;1.20;;;1.10;;
69325;SDS011;56471;53.508;49.252;2023-06-22T01:28:50;1.58;;;1.10;;
69325;SDS011;56471;53.508;49.252;2023-06-22T01:31:18;1.92;;;1.30;;
69325;SDS011;56471;53.508;49.252;2023-06-22T01:33:49;1.88;;;1.10;;
69325;SDS011;56471;53.508;49.252;2023-06-22T01:36:17;1.40;;;1.20;;
69325;SDS011;56471;53.508;49.252;2023-06-22T01:38:45;4.00;;;1.35;;
69325;SDS011;56471;53.508;49.252;2023-06-22T01:41:12;1.55;;;1.25;;
69325;SDS011;56471;53.508;49.252;2023-06-22T01:43:38;1.50;;;1.30;;
69325;SDS011;56471;53.508;49.252;2023-06-22T01:46:05;2.25;;;1.20;;
69325;SDS011;56471;53.508;49.252;2023-06-22T01:48:31;1.70;;;1.20;;
69325;SDS011;56471;53.508;49.252;2023-06-22T01:50:57;1.40;;;1.25;;
69325;SDS011;56471;53.508;49.252;2023-06-22T01:53:23;3.55;;;1.20;;
69325;SDS011;56471;53.508;49.252;2023-06-22T01:55:49;1.45;;;1.23;;
69325;SDS011;56471;53.508;49.252;2023-06-22T01:58:15;2.63;;;1.50;;
69325;SDS011;56471;53.508;49.252;2023-06-22T02:00:48;1.67;;;1.33;;
69325;SDS011;56471;53.508;49.252;2023-06-22T02:03:19;1.80;;;1.20;;
69325;SDS011;56471;53.508;49.252;2023-06-22T02:05:55;1.67;;;1.30;;
69325;SDS011;56471;53.508;49.252;2023-06-22T02:08:30;2.67;;;1.33;;
69325;SDS011;56471;53.508;49.252;2023-06-22T02:11:00;2.35;;;1.38;;
69325;SDS011;56471;53.508;49.252;2023-06-22T02:13:28;1.92;;;1.20;;
69325;SDS011;56471;53.508;49.252;2023-06-22T02:15:53;2.33;;;1.20;;
69325;SDS011;56471;53.508;49.252;2023-06-22T02:18:19;1.40;;;1.20;;
69325;SDS011;56471;53.508;49.252;2023-06-22T02:20:45;2.00;;;1.20;;
69325;SDS011;56471;53.508;49.252;2023-06-22T02:23:11;1.90;;;1.17;;
69325;SDS011;56471;53.508;49.252;2023-06-22T02:25:37;1.40;;;1.20;;
69325;SDS011;56471;53.508;49.252;2023-06-22T02:28:03;2.30;;;1.38;;
69325;SDS011;56471;53.508;49.252;2023-06-22T02:30:29;2.95;;;1.33;;
69325;SDS011;56471;53.508;49.252;2023-06-22T02:32:54;1.30;;;1.08;;
69325;SDS011;56471;53.508;49.252;2023-06-22T02:35:27;2.45;;;1.10;;
69325;SDS011;56471;53.508;49.252;2023-06-22T02:37:59;1.70;;;1.20;;
69325;SDS011;56471;53.508;49.252;2023-06-22T02:40:26;3.00;;;1.27;;
69325;SDS011;56471;53.508;49.252;2023-06-22T02:42:52;1.45;;;1.30;;
69325;SDS011;56471;53.508;49.252;2023-06-22T02:45:17;1.67;;;1.10;;
69325;SDS011;56471;53.508;49.252;2023-06-22T02:47:43;1.75;;;1.40;;
69325;SDS011;56471;53.508;49.252;2023-06-22T02:50:09;2.25;;;1.30;;
69325;SDS011;56471;53.508;49.252;2023-06-22T02:52:35;1.80;;;1.40;;
69325;SDS011;56471;53.508;49.252;2023-06-22T02:55:01;1.92;;;1.20;;
69325;SDS011;56471;53.508;49.252;2023-06-22T02:57:27;1.20;;;1.10;;
69325;SDS011;56471;53.508;49.252;2023-06-22T02:59:52;1.58;;;1.15;;
69325;SDS011;56471;53.508;49.252;2023-06-22T03:02:18;2.58;;;1.20;;
69325;SDS011;56471;53.508;49.252;2023-06-22T03:04:46;1.48;;;1.20;;
69325;SDS011;56471;53.508;49.252;2023-06-22T03:07:14;1.60;;;1.30;;
69325;SDS011;56471;53.508;49.252;2023-06-22T03:09:42;2.85;;;1.25;;
69325;SDS011;56471;53.508;49.252;2023-06-22T03:12:08;1.23;;;1.10;;
69325;SDS011;56471;53.508;49.252;2023-06-22T03:14:34;1.80;;;1.27;;
69325;SDS011;56471;53.508;49.252;2023-06-22T03:16:59;1.65;;;1.20;;
69325;SDS011;56471;53.508;49.252;2023-06-22T03:19:28;2.35;;;1.10;;
69325;SDS011;56471;53.508;49.252;2023-06-22T03:21:56;1.90;;;1.20;;
69325;SDS011;56471;53.508;49.252;2023-06-22T03:24:22;1.88;;;0.90;;
69325;SDS011;56471;53.508;49.252;2023-06-22T03:26:48;1.33;;;1.08;;
69325;SDS011;56471;53.508;49.252;2023-06-22T03:29:14;2.58;;;1.20;;
69325;SDS011;56471;53.508;49.252;2023-06-22T03:31:40;1.30;;;1.20;;
69325;SDS011;56471;53.508;49.252;2023-06-22T03:34:06;1.33;;;1.10;;
69325;SDS011;56471;53.508;49.252;2023-06-22T03:36:31;2.78;;;1.33;;
69325;SDS011;56471;53.508;49.252;2023-06-22T03:38:57;3.28;;;1.30;;
69325;SDS011;56471;53.508;49.252;2023-06-22T03:41:23;1.60;;;1.23;;
69325;SDS011;56471;53.508;49.252;2023-06-22T03:43:48;2.05;;;1.40;;
69325;SDS011;56471;53.508;49.252;2023-06-22T03:46:14;3.30;;;1.35;;
69325;SDS011;56471;53.508;49.252;2023-06-22T03:48:40;1.70;;;1.30;;
69325;SDS011;56471;53.508;49.252;2023-06-22T03:51:05;1.40;;;1.23;;
69325;SDS011;56471;53.508;49.252;2023-06-22T03:53:31;4.40;;;1.75;;
69325;SDS011;56471;53.508;49.252;2023-06-22T03:55:57;7.32;;;1.58;;
69325;SDS011;56471;53.508;49.252;2023-06-22T03:58:23;4.43;;;1.50;;
69325;SDS011;56471;53.508;49.252;2023-06-22T04:00:51;1.92;;;1.02;;
69325;SDS011;56471;53.508;49.252;2023-06-22T04:03:18;3.33;;;1.10;;
69325;SDS011;56471;53.508;49.252;2023-06-22T04:05:44;2.45;;;1.23;;
69325;SDS011;56471;53.508;49.252;2023-06-22T04:08:10;2.13;;;1.30;;
69325;SDS011;56471;53.508;49.252;2023-06-22T04:10:37;2.22;;;1.20;;
69325;SDS011;56471;53.508;49.252;2023-06-22T04:13:03;2.33;;;1.30;;
69325;SDS011;56471;53.508;49.252;2023-06-22T04:15:28;3.40;;;1.30;;
69325;SDS011;56471;53.508;49.252;2023-06-22T04:17:54;1.75;;;0.90;;
69325;SDS011;56471;53.508;49.252;2023-06-22T04:20:20;2.75;;;1.10;;
69325;SDS011;56471;53.508;49.252;2023-06-22T04:22:46;1.48;;;1.10;;
69325;SDS011;56471;53.508;49.252;2023-06-22T04:25:11;1.70;;;1.10;;
69325;SDS011;56471;53.508;49.252;2023-06-22T04:27:37;1.13;;;1.00;;
69325;SDS011;56471;53.508;49.252;2023-06-22T04:30:06;1.15;;;1.00;;
69325;SDS011;56471;53.508;49.252;2023-06-22T04:32:33;1.80;;;1.02;;
69325;SDS011;56471;53.508;49.252;2023-06-22T04:35:01;2.35;;;1.15;;
69325;SDS011;56471;53.508;49.252;2023-06-22T04:37:29;1.65;;;0.93;;
69325;SDS011;56471;53.508;49.252;2023-06-22T04:39:55;2.35;;;1.17;;
69325;SDS011;56471;53.508;49.252;2023-06-22T04:42:21;1.42;;;1.10;;
69325;SDS011;56471;53.508;49.252;2023-06-22T04:44:46;1.73;;;1.10;;
69325;SDS011;56471;53.508;49.252;2023-06-22T04:47:12;2.42;;;1.10;;
69325;SDS011;56471;53.508;49.252;2023-06-22T04:49:38;4.72;;;1.30;;
69325;SDS011;56471;53.508;49.252;2023-06-22T04:52:09;1.10;;;1.00;;
69325;SDS011;56471;53.508;49.252;2023-06-22T04:54:37;2.30;;;0.95;;
69325;SDS011;56471;53.508;49.252;2023-06-22T04:57:04;1.65;;;1.17;;
69325;SDS011;56471;53.508;49.252;2023-06-22T04:59:35;1.52;;;1.05;;
69325;SDS011;56471;53.508;49.252;2023-06-22T05:02:02;1.13;;;1.00;;
69325;SDS011;56471;53.508;49.252;2023-06-22T05:04:28;1.00;;;0.80;;
69325;SDS011;56471;53.508;49.252;2023-06-22T05:06:58;1.27;;;1.10;;
69325;SDS011;56471;53.508;49.252;2023-06-22T05:09:28;0.75;;;0.75;;
69325;SDS011;56471;53.508;49.252;2023-06-22T05:11:54;1.98;;;1.10;;
69325;SDS011;56471;53.508;49.252;2023-06-22T05:14:22;2.50;;;1.23;;
69325;SDS011;56471;53.508;49.252;2023-06-22T05:16:48;4.15;;;1.17;;
69325;SDS011;56471;53.508;49.252;2023-06-22T05:19:14;2.50;;;1.20;;
69325;SDS011;56471;53.508;49.252;2023-06-22T05:21:40;2.08;;;1.20;;
69325;SDS011;56471;53.508;49.252;2023-06-22T05:24:06;2.65;;;1.10;;
69325;SDS011;56471;53.508;49.252;2023-06-22T05:26:33;2.20;;;1.10;;
69325;SDS011;56471;53.508;49.252;2023-06-22T05:29:00;2.88;;;1.35;;
69325;SDS011;56471;53.508;49.252;2023-06-22T05:31:26;1.65;;;1.20;;
69325;SDS011;56471;53.508;49.252;2023-06-22T05:33:53;1.92;;;1.20;;
69325;SDS011;56471;53.508;49.252;2023-06-22T05:36:19;1.00;;;0.90;;
69325;SDS011;56471;53.508;49.252;2023-06-22T05:38:46;1.90;;;0.90;;
69325;SDS011;56471;53.508;49.252;2023-06-22T05:41:12;1.75;;;1.25;;
69325;SDS011;56471;53.508;49.252;2023-06-22T05:43:39;2.60;;;1.02;;
69325;SDS011;56471;53.508;49.252;2023-06-22T05:46:05;3.08;;;1.10;;
69325;SDS011;56471;53.508;49.252;2023-06-22T05:48:31;1.40;;;1.10;;
69325;SDS011;56471;53.508;49.252;2023-06-22T05:50:56;1.25;;;0.93;;
69325;SDS011;56471;53.508;49.252;2023-06-22T05:53:22;2.80;;;1.23;;
69325;SDS011;56471;53.508;49.252;2023-06-22T05:55:48;4.32;;;1.13;;
69325;SDS011;56471;53.508;49.252;2023-06-22T05:58:14;4.50;;;1.42;;
69325;SDS011;56471;53.508;49.252;2023-06-22T06:00:40;3.67;;;0.90;;
69325;SDS011;56471;53.508;49.252;2023-06-22T06:03:09;1.58;;;0.90;;
69325;SDS011;56471;53.508;49.252;2023-06-22T06:05:35;2.50;;;0.93;;
69325;SDS011;56471;53.508;49.252;2023-06-22T06:08:03;3.88;;;0.90;;
69325;SDS011;56471;53.508;49.252;2023-06-22T06:10:31;2.42;;;0.90;;
69325;SDS011;56471;53.508;49.252;2023-06-22T06:12:58;1.77;;;0.90;;
69325;SDS011;56471;53.508;49.252;2023-06-22T06:15:24;2.65;;;0.80;;
69325;SDS011;56471;53.508;49.252;2023-06-22T06:17:50;2.55;;;0.90;;
69325;SDS011;56471;53.508;49.252;2023-06-22T06:20:21;1.20;;;0.90;;
69325;SDS011;56471;53.508;49.252;2023-06-22T06:22:48;1.30;;;0.90;;
69325;SDS011;56471;53.508;49.252;2023-06-22T06:25:14;5.88;;;0.90;;
69325;SDS011;56471;53.508;49.252;2023-06-22T06:27:45;2.65;;;0.90;;
69325;SDS011;56471;53.508;49.252;2023-06-22T06:30:12;2.42;;;1.10;;
69325;SDS011;56471;53.508;49.252;2023-06-22T06:32:39;2.58;;;0.90;;
69325;SDS011;56471;53.508;49.252;2023-06-22T06:35:05;1.30;;;1.20;;
69325;SDS011;56471;53.508;49.252;2023-06-22T06:37:35;1.65;;;1.15;;
69325;SDS011;56471;53.508;49.252;2023-06-22T06:40:03;2.22;;;1.10;;
69325;SDS011;56471;53.508;49.252;2023-06-22T06:42:30;4.03;;;1.00;;
69325;SDS011;56471;53.508;49.252;2023-06-22T06:44:56;1.40;;;1.10;;
69325;SDS011;56471;53.508;49.252;2023-06-22T06:47:22;1.35;;;1.08;;
69325;SDS011;56471;53.508;49.252;2023-06-22T06:49:48;1.67;;;0.90;;
69325;SDS011;56471;53.508;49.252;2023-06-22T06:52:13;1.27;;;0.90;;
69325;SDS011;56471;53.508;49.252;2023-06-22T06:54:39;1.20;;;0.90;;
69325;SDS011;56471;53.508;49.252;2023-06-22T06:57:07;0.98;;;0.93;;
69325;SDS011;56471;53.508;49.252;2023-06-22T06:59:35;4.40;;;0.90;;
69325;SDS011;56471;53.508;49.252;2023-06-22T07:02:00;3.50;;;0.90;;
69325;SDS011;56471;53.508;49.252;2023-06-22T07:04:26;1.63;;;0.95;;
69325;SDS011;56471;53.508;49.252;2023-06-22T07:06:52;0.80;;;0.80;;
69325;SDS011;56471;53.508;49.252;2023-06-22T07:09:18;1.20;;;0.80;;
69325;SDS011;56471;53.508;49.252;2023-06-22T07:11:43;3.45;;;0.90;;
69325;SDS011;56471;53.508;49.252;2023-06-22T07:14:09;0.82;;;0.80;;
69325;SDS011;56471;53.508;49.252;2023-06-22T07:16:35;0.70;;;0.70;;
69325;SDS011;56471;53.508;49.252;2023-06-22T07:19:00;1.15;;;1.05;;
69325;SDS011;56471;53.508;49.252;2023-06-22T07:21:26;3.10;;;0.88;;
69325;SDS011;56471;53.508;49.252;2023-06-22T07:23:51;0.77;;;0.68;;
69325;SDS011;56471;53.508;49.252;2023-06-22T07:26:17;2.55;;;0.98;;
69325;SDS011;56471;53.508;49.252;2023-06-22T07:28:43;0.88;;;0.88;;
69325;SDS011;56471;53.508;49.252;2023-06-22T07:31:08;1.00;;;0.90;;
69325;SDS011;56471;53.508;49.252;2023-06-22T07:33:34;2.05;;;0.88;;
69325;SDS011;56471;53.508;49.252;2023-06-22T07:35:59;2.53;;;1.00;;
69325;SDS011;56471;53.508;49.252;2023-06-22T07:38:25;1.70;;;0.90;;
69325;SDS011;56471;53.508;49.252;2023-06-22T07:40:51;1.88;;;1.00;;
69325;SDS011;56471;53.508;49.252;2023-06-22T07:43:18;4.45;;;1.00;;
69325;SDS011;56471;53.508;49.252;2023-06-22T07:45:50;3.33;;;1.00;;
69325;SDS011;56471;53.508;49.252;2023-06-22T07:50:44;426.83;;;344.88;;
69325;SDS011;56471;53.508;49.252;2023-06-22T07:53:10;477.67;;;383.20;;
69325;SDS011;56471;53.508;49.252;2023-06-22T07:55:36;299.92;;;232.65;;
69325;SDS011;56471;53.508;49.252;2023-06-22T07:58:01;212.63;;;148.32;;
69325;SDS011;56471;53.508;49.252;2023-06-22T08:00:27;144.73;;;101.97;;
69325;SDS011;56471;53.508;49.252;2023-06-22T08:02:52;93.03;;;61.00;;
69325;SDS011;56471;53.508;49.252;2023-06-22T08:05:18;66.97;;;41.35;;
69325;SDS011;56471;53.508;49.252;2023-06-22T08:07:44;42.72;;;27.50;;
69325;SDS011;56471;53.508;49.252;2023-06-22T08:10:10;28.67;;;18.73;;
69325;SDS011;56471;53.508;49.252;2023-06-22T08:12:37;19.83;;;13.02;;
69325;SDS011;56471;53.508;49.252;2023-06-22T08:15:02;14.10;;;8.68;;
69325;SDS011;56471;53.508;49.252;2023-06-22T08:17:28;9.30;;;6.70;;
69325;SDS011;56471;53.508;49.252;2023-06-22T08:19:56;7.60;;;5.00;;
69325;SDS011;56471;53.508;49.252;2023-06-22T08:22:21;4.80;;;3.40;;
69325;SDS011;56471;53.508;49.252;2023-06-22T08:24:47;3.30;;;2.63;;
69325;SDS011;56471;53.508;49.252;2023-06-22T08:27:13;2.70;;;1.98;;
69325;SDS011;56471;53.508;49.252;2023-06-22T08:29:40;3.13;;;1.40;;
69325;SDS011;56471;53.508;49.252;2023-06-22T08:32:10;1.70;;;1.13;;
69325;SDS011;56471;53.508;49.252;2023-06-22T08:34:37;2.88;;;1.10;;
69325;SDS011;56471;53.508;49.252;2023-06-22T08:37:07;1.77;;;1.23;;
69325;SDS011;56471;53.508;49.252;2023-06-22T08:39:33;1.20;;;0.80;;
69325;SDS011;56471;53.508;49.252;2023-06-22T08:41:59;0.70;;;0.70;;
69325;SDS011;56471;53.508;49.252;2023-06-22T08:44:25;453.60;;;359.92;;
69325;SDS011;56471;53.508;49.252;2023-06-22T08:46:50;382.02;;;302.58;;
69325;SDS011;56471;53.508;49.252;2023-06-22T08:49:16;294.17;;;227.00;;
69325;SDS011;56471;53.508;49.252;2023-06-22T08:51:42;242.48;;;179.98;;
69325;SDS011;56471;53.508;49.252;2023-06-22T08:54:09;187.07;;;134.20;;
69325;SDS011;56471;53.508;49.252;2023-06-22T08:56:35;131.60;;;91.63;;
69325;SDS011;56471;53.508;49.252;2023-06-22T08:59:01;97.28;;;65.05;;
69325;SDS011;56471;53.508;49.252;2023-06-22T09:01:27;65.10;;;41.53;;
69325;SDS011;56471;53.508;49.252;2023-06-22T09:03:52;45.72;;;27.60;;
69325;SDS011;56471;53.508;49.252;2023-06-22T09:06:23;37.63;;;21.38;;
69325;SDS011;56471;53.508;49.252;2023-06-22T09:08:49;23.77;;;14.25;;
69325;SDS011;56471;53.508;49.252;2023-06-22T09:11:15;15.98;;;10.77;;
69325;SDS011;56471;53.508;49.252;2023-06-22T09:13:41;11.52;;;7.53;;
69325;SDS011;56471;53.508;49.252;2023-06-22T09:16:07;7.60;;;5.00;;
69325;SDS011;56471;53.508;49.252;2023-06-22T09:18:36;4.35;;;3.47;;
69325;SDS011;56471;53.508;49.252;2023-06-22T09:21:02;53.10;;;30.42;;
69325;SDS011;56471;53.508;49.252;2023-06-22T09:23:27;43.85;;;22.30;;
69325;SDS011;56471;53.508;49.252;2023-06-22T09:25:53;148.55;;;92.85;;
69325;SDS011;56471;53.508;49.252;2023-06-22T09:28:19;13.43;;;6.10;;
69325;SDS011;56471;53.508;49.252;2023-06-22T09:30:45;8.15;;;2.03;;
69325;SDS011;56471;53.508;49.252;2023-06-22T09:33:11;2.05;;;1.67;;
69325;SDS011;56471;53.508;49.252;2023-06-22T09:35:36;2.80;;;1.25;;
69325;SDS011;56471;53.508;49.252;2023-06-22T09:38:02;2.03;;;1.40;;
69325;SDS011;56471;53.508;49.252;2023-06-22T09:40:28;1.20;;;1.10;;
69325;SDS011;56471;53.508;49.252;2023-06-22T09:42:53;1.20;;;1.00;;
69325;SDS011;56471;53.508;49.252;2023-06-22T09:45:19;1.80;;;1.00;;
69325;SDS011;56471;53.508;49.252;2023-06-22T09:47:44;0.93;;;0.93;;
69325;SDS011;56471;53.508;49.252;2023-06-22T09:50:10;2.13;;;1.17;;
69325;SDS011;56471;53.508;49.252;2023-06-22T09:52:36;3.80;;;1.20;;
69325;SDS011;56471;53.508;49.252;2023-06-22T09:55:01;1.98;;;1.40;;
69325;SDS011;56471;53.508;49.252;2023-06-22T09:57:28;6.72;;;1.40;;
69325;SDS011;56471;53.508;49.252;2023-06-22T09:59:54;7.78;;;1.40;;
69325;SDS011;56471;53.508;49.252;2023-06-22T10:02:21;4.65;;;1.35;;
69325;SDS011;56471;53.508;49.252;2023-06-22T10:04:47;78.85;;;63.60;;
69325;SDS011;56471;53.508;49.252;2023-06-22T10:07:13;308.42;;;249.45;;
69325;SDS011;56471;53.508;49.252;2023-06-22T10:09:39;224.80;;;177.75;;
69325;SDS011;56471;53.508;49.252;2023-06-22T10:12:04;172.80;;;131.77;;
69325;SDS011;56471;53.508;49.252;2023-06-22T10:14:30;162.52;;;116.30;;
69325;SDS011;56471;53.508;49.252;2023-06-22T10:16:56;103.45;;;72.75;;
69325;SDS011;56471;53.508;49.252;2023-06-22T10:19:22;75.03;;;48.55;;
69325;SDS011;56471;53.508;49.252;2023-06-22T10:21:47;53.83;;;33.35;;
69325;SDS011;56471;53.508;49.252;2023-06-22T10:24:13;29.70;;;20.23;;
69325;SDS011;56471;53.508;49.252;2023-06-22T10:26:39;23.33;;;16.42;;
69325;SDS011;56471;53.508;49.252;2023-06-22T10:29:04;21.35;;;14.02;;
69325;SDS011;56471;53.508;49.252;2023-06-22T10:31:30;18.17;;;11.75;;
69325;SDS011;56471;53.508;49.252;2023-06-22T10:33:56;14.02;;;8.68;;
69325;SDS011;56471;53.508;49.252;2023-06-22T10:36:22;10.43;;;8.25;;
69325;SDS011;56471;53.508;49.252;2023-06-22T10:38:48;11.10;;;5.28;;
69325;SDS011;56471;53.508;49.252;2023-06-22T10:41:14;6.47;;;4.15;;
69325;SDS011;56471;53.508;49.252;2023-06-22T10:43:41;116.95;;;70.22;;
69325;SDS011;56471;53.508;49.252;2023-06-22T10:46:06;43.25;;;23.02;;
69325;SDS011;56471;53.508;49.252;2023-06-22T10:48:32;15.20;;;7.03;;
69325;SDS011;56471;53.508;49.252;2023-06-22T10:50:58;5.75;;;2.88;;
69325;SDS011;56471;53.508;49.252;2023-06-22T10:53:24;4.32;;;2.30;;
69325;SDS011;56471;53.508;49.252;2023-06-22T10:55:49;2.78;;;1.70;;
69325;SDS011;56471;53.508;49.252;2023-06-22T10:58:17;3.05;;;1.55;;
69325;SDS011;56471;53.508;49.252;2023-06-22T11:00:44;2.13;;;1.40;;
69325;SDS011;56471;53.508;49.252;2023-06-22T11:03:10;3.10;;;1.27;;
69325;SDS011;56471;53.508;49.252;2023-06-22T11:05:36;5.60;;;1.48;;
69325;SDS011;56471;53.508;49.252;2023-06-22T11:08:01;3.22;;;1.40;;
69325;SDS011;56471;53.508;49.252;2023-06-22T11:10:27;2.75;;;1.50;;
69325;SDS011;56471;53.508;49.252;2023-06-22T11:12:53;2.85;;;1.45;;
69325;SDS011;56471;53.508;49.252;2023-06-22T11:15:18;2.25;;;1.48;;
69325;SDS011;56471;53.508;49.252;2023-06-22T11:17:44;2.80;;;1.42;;
69325;SDS011;56471;53.508;49.252;2023-06-22T11:20:10;3.28;;;2.15;;
69325;SDS011;56471;53.508;49.252;2023-06-22T11:22:37;3.17;;;1.90;;
69325;SDS011;56471;53.508;49.252;2023-06-22T11:25:04;460.42;;;387.60;;
69325;SDS011;56471;53.508;49.252;2023-06-22T11:27:30;418.25;;;345.95;;
69325;SDS011;56471;53.508;49.252;2023-06-22T11:29:56;305.17;;;244.20;;
69325;SDS011;56471;53.508;49.252;2023-06-22T11:32:22;170.02;;;122.32;;
69325;SDS011;56471;53.508;49.252;2023-06-22T11:34:48;1025.63;;;680.25;;
69325;SDS011;56471;53.508;49.252;2023-06-22T11:37:14;355.50;;;205.50;;
69325;SDS011;56471;53.508;49.252;2023-06-22T11:39:40;100.57;;;48.33;;
69325;SDS011;56471;53.508;49.252;2023-06-22T11:42:07;30.60;;;14.30;;
69325;SDS011;56471;53.508;49.252;2023-06-22T11:44:33;9.30;;;5.43;;
69325;SDS011;56471;53.508;49.252;2023-06-22T11:46:58;8.18;;;3.85;;
69325;SDS011;56471;53.508;49.252;2023-06-22T11:49:26;5.35;;;2.03;;
69325;SDS011;56471;53.508;49.252;2023-06-22T11:51:52;2.97;;;1.98;;
69325;SDS011;56471;53.508;49.252;2023-06-22T11:54:18;3.63;;;1.60;;
69325;SDS011;56471;53.508;49.252;2023-06-22T11:56:43;2.15;;;1.70;;
69325;SDS011;56471;53.508;49.252;2023-06-22T11:59:09;2.67;;;1.50;;
69325;SDS011;56471;53.508;49.252;2023-06-22T12:01:35;2.75;;;1.90;;
69325;SDS011;56471;53.508;49.252;2023-06-22T12:04:00;3.45;;;2.00;;
69325;SDS011;56471;53.508;49.252;2023-06-22T12:06:26;2.13;;;1.75;;
69325;SDS011;56471;53.508;49.252;2023-06-22T12:08:53;2.72;;;1.73;;
69325;SDS011;56471;53.508;49.252;2023-06-22T12:11:18;5.20;;;1.70;;
69325;SDS011;56471;53.508;49.252;2023-06-22T12:13:44;2.92;;;1.88;;
69325;SDS011;56471;53.508;49.252;2023-06-22T12:16:10;3.67;;;1.70;;
69325;SDS011;56471;53.508;49.252;2023-06-22T12:18:37;2.58;;;1.60;;
69325;SDS011;56471;53.508;49.252;2023-06-22T12:21:02;3.97;;;1.60;;
69325;SDS011;56471;53.508;49.252;2023-06-22T12:23:28;6.80;;;1.85;;
69325;SDS011;56471;53.508;49.252;2023-06-22T12:25:54;2.70;;;1.80;;
69325;SDS011;56471;53.508;49.252;2023-06-22T12:28:19;2.83;;;1.40;;
69325;SDS011;56471;53.508;49.252;2023-06-22T12:30:45;4.30;;;1.55;;
69325;SDS011;56471;53.508;49.252;2023-06-22T12:33:11;1.73;;;1.50;;
69325;SDS011;56471;53.508;49.252;2023-06-22T12:35:36;4.22;;;1.58;;
69325;SDS011;56471;53.508;49.252;2023-06-22T12:38:02;2.50;;;1.33;;
69325;SDS011;56471;53.508;49.252;2023-06-22T12:40:28;6.10;;;1.58;;
69325;SDS011;56471;53.508;49.252;2023-06-22T12:42:53;2.00;;;1.50;;
69325;SDS011;56471;53.508;49.252;2023-06-22T12:45:19;2.85;;;1.40;;
69325;SDS011;56471;53.508;49.252;2023-06-22T12:47:46;1.50;;;1.40;;
69325;SDS011;56471;53.508;49.252;2023-06-22T12:50:12;1.55;;;1.20;;
69325;SDS011;56471;53.508;49.252;2023-06-22T12:52:38;2.80;;;1.50;;
69325;SDS011;56471;53.508;49.252;2023-06-22T12:55:06;1.63;;;1.33;;
69325;SDS011;56471;53.508;49.252;2023-06-22T12:57:32;2.58;;;1.30;;
69325;SDS011;56471;53.508;49.252;2023-06-22T12:59:57;2.65;;;1.20;;
69325;SDS011;56471;53.508;49.252;2023-06-22T13:02:25;1.77;;;1.50;;
69325;SDS011;56471;53.508;49.252;2023-06-22T13:04:51;2.30;;;1.48;;
69325;SDS011;56471;53.508;49.252;2023-06-22T13:07:17;4.35;;;1.58;;
69325;SDS011;56471;53.508;49.252;2023-06-22T13:09:42;3.20;;;1.50;;
69325;SDS011;56471;53.508;49.252;2023-06-22T13:12:10;4.53;;;1.40;;
69325;SDS011;56471;53.508;49.252;2023-06-22T13:14:36;4.45;;;1.50;;
69325;SDS011;56471;53.508;49.252;2023-06-22T13:17:01;4.70;;;1.90;;
69325;SDS011;56471;53.508;49.252;2023-06-22T13:19:27;11.23;;;1.90;;
69325;SDS011;56471;53.508;49.252;2023-06-22T13:21:57;9.18;;;1.52;;
69325;SDS011;56471;53.508;49.252;2023-06-22T13:24:23;10.63;;;1.73;;
69325;SDS011;56471;53.508;49.252;2023-06-22T13:26:48;8.10;;;1.65;;
69325;SDS011;56471;53.508;49.252;2023-06-22T13:29:14;6.25;;;1.52;;
69325;SDS011;56471;53.508;49.252;2023-06-22T13:31:39;2.72;;;1.48;;
69325;SDS011;56471;53.508;49.252;2023-06-22T13:34:05;5.28;;;1.40;;
69325;SDS011;56471;53.508;49.252;2023-06-22T13:36:31;3.92;;;1.40;;
69325;SDS011;56471;53.508;49.252;2023-06-22T13:38:57;3.70;;;1.60;;
69325;SDS011;56471;53.508;49.252;2023-06-22T13:41:22;3.33;;;1.63;;
69325;SDS011;56471;53.508;49.252;2023-06-22T13:43:48;1.48;;;1.35;;
69325;SDS011;56471;53.508;49.252;2023-06-22T13:46:14;3.10;;;1.40;;
69325;SDS011;56471;53.508;49.252;2023-06-22T13:48:39;1.55;;;1.30;;
69325;SDS011;56471;53.508;49.252;2023-06-22T13:51:05;2.22;;;1.40;;
69325;SDS011;56471;53.508;49.252;2023-06-22T13:53:31;2.80;;;1.30;;
69325;SDS011;56471;53.508;49.252;2023-06-22T13:55:57;2.03;;;1.33;;
69325;SDS011;56471;53.508;49.252;2023-06-22T13:58:22;4.32;;;1.60;;
69325;SDS011;56471;53.508;49.252;2023-06-22T14:00:48;12.45;;;2.00;;
69325;SDS011;56471;53.508;49.252;2023-06-22T14:03:14;8.85;;;2.58;;
69325;SDS011;56471;53.508;49.252;2023-06-22T14:05:42;7.90;;;2.63;;
69325;SDS011;56471;53.508;49.252;2023-06-22T14:08:08;1307.68;;;764.72;;
69325;SDS011;56471;53.508;49.252;2023-06-22T14:10:34;1146.43;;;716.47;;
69325;SDS011;56471;53.508;49.252;2023-06-22T14:13:00;1073.05;;;689.25;;
69325;SDS011;56471;53.508;49.252;2023-06-22T14:15:25;971.85;;;643.97;;
69325;SDS011;56471;53.508;49.252;2023-06-22T14:17:51;877.30;;;590.88;;
69325;SDS011;56471;53.508;49.252;2023-06-22T14:20:17;796.33;;;541.85;;
69325;SDS011;56471;53.508;49.252;2023-06-22T14:22:43;735.15;;;491.50;;
69325;SDS011;56471;53.508;49.252;2023-06-22T14:25:09;675.67;;;452.08;;
69325;SDS011;56471;53.508;49.252;2023-06-22T14:27:34;640.50;;;426.08;;
69325;SDS011;56471;53.508;49.252;2023-06-22T14:30:00;566.67;;;354.98;;
69325;SDS011;56471;53.508;49.252;2023-06-22T14:32:27;520.65;;;328.23;;